الصفحة الرئيسية
METAR-TAF:

METAR-TAF

مطار :

توربو, كولومبيا

دائرة عرض: 10-26N, خط طول: 073-15W, ارتفاع: 138 متر

مراقبة الطقس الحالي

تاريخ ووقت الإصدار 1ساعة و 29 دقيقة قبل الساعة 04:00UTC
ريح 10 عقدة من الشرق/الشمال الشرقي
درجة الحرارة 29°درجة مئوية
الرطوبة 66%
ضغط 1012 hPa
الرؤية 10 كم أو أكثر
غيوم متفرقة على ارتفاع 2000 قدم

METAR: SKVP 250400Z 06010KT 9999 SCT020 29/22 Q1012

زمن: 00:29 (05:29 UTC)


TAF: مفقودة

أرصاد الطقس والتوقعات من أكثر من 4000 مطار (تقارير الطقس للمطار METAR والتنبؤ بالطقس بالمطارTAF).

المحطات المتاحة هي النقط الصفراء والحمراء على الخريطة.

حرك المؤشر فوق النقطة لمعرفة اسم المحطة.

ثم انقر لمعرفة أرصاد وتوقعات الطقس.

لتغيير الخارطة: اضغط على الأزرار الخضراء مع رمز الصليب الأسود للتكبير. على الزر الأخضر مع شرطة للتصغير، أو على الأسهم الخضراء للخرائط المجاورة.


METAR-TAF: